ソウル/仁川 の空港の天気 - METARとTAF

仁川国際空港 ( RKSI / ICN ) - 韓国 仁川広域市 (ソウル特別市近郊)
飛行場実況気象(Metar)
観測時間11/19 19:00 KST (11/19 10:00 UTC)
風向・風速北西 3m/s
視程10km以上
天気現象
少しの雲 雲底高度 1220m
気温3℃
湿度65%
気圧1027hPa
METARRKSI 191000Z 32005KT 9999 FEW040 03/M03 Q1027 NOSIG
過去の天気等 Google飛行場航空写真 Wunderground天気予報

過去48時間のMETAR

飛行場予報(TAF)
発表時間: 11/19 14:00 KST (11/19 05:00 UTC)
予報対象時間: 19日15時 KST ~ 20日21時 KST
風向・風速北北西 8m/s 瞬間風速 13m/s
視程10km以上
全天の4割程度の雲 雲底高度 760m
20日0時 KST ~ 20日1時 KST に徐々に
風向・風速北北西 5m/s
視程10km以上
なし
20日19時 KST ~ 20日20時 KST に徐々に
風向・風速北東 3m/s
TAF RKSI 190500Z 1906/2012 33015G25KT 9999 SCT025 TNM03/1921Z TX05/2006Z
BECMG 1915/1916 34010KT CAVOK
BECMG 2010/2011 05006KT